createdAt,value
2017-08-15T13:47:40.693Z,1009.45
2017-08-15T13:49:42.132Z,1009.46
2017-08-15T13:51:43.570Z,1009.49
2017-08-15T13:53:45.152Z,1009.60
2017-08-15T13:55:46.594Z,1009.61
2017-08-15T13:58:29.029Z,1009.59
2017-08-15T14:00:30.470Z,1009.57
2017-08-15T14:02:31.908Z,1009.58
2017-08-15T14:04:33.352Z,1009.62
2017-08-15T14:06:34.796Z,1009.61
2017-08-15T14:08:36.235Z,1009.57
2017-08-15T14:10:37.703Z,1009.51
2017-08-15T14:12:39.612Z,1009.55
2017-08-15T14:14:41.054Z,1009.62
2017-08-15T14:16:42.830Z,1009.66
2017-08-15T14:18:44.282Z,1009.68
2017-08-15T14:20:45.833Z,1009.64
2017-08-15T14:22:47.345Z,1009.63
2017-08-15T14:24:48.902Z,1009.66
2017-08-15T14:26:50.856Z,1009.67
2017-08-15T14:28:52.832Z,1009.74
2017-08-15T14:30:54.343Z,1009.76
2017-08-15T14:32:55.928Z,1009.78
2017-08-15T14:34:57.488Z,1009.84
2017-08-15T14:36:59.368Z,1009.84
2017-08-15T14:39:00.900Z,1009.86
2017-08-15T14:41:02.427Z,1009.89
2017-08-15T14:43:45.438Z,1009.87
2017-08-15T14:45:46.984Z,1009.89
2017-08-15T14:47:48.419Z,1009.84
2017-08-15T14:49:49.860Z,1009.83
2017-08-15T14:51:51.455Z,1009.81
2017-08-15T14:53:52.872Z,1009.79
2017-08-15T14:55:54.312Z,1009.79
2017-08-15T14:57:55.752Z,1009.81
2017-08-15T14:59:57.192Z,1009.81
2017-08-15T15:01:58.638Z,1009.82
2017-08-15T15:04:41.059Z,1009.78
2017-08-15T15:06:43.770Z,1009.73
2017-08-15T15:08:45.483Z,1009.71
2017-08-15T15:10:47.414Z,1009.71
2017-08-15T15:12:48.845Z,1009.74
2017-08-15T15:14:50.716Z,1009.69
2017-08-15T15:16:52.173Z,1009.71
2017-08-15T15:19:34.861Z,1009.70
2017-08-15T15:21:36.301Z,1009.71
2017-08-15T15:23:37.788Z,1009.62
2017-08-15T15:25:39.614Z,1009.59
2017-08-15T15:27:41.063Z,1009.58
2017-08-15T15:29:42.495Z,1009.64
2017-08-15T15:31:43.980Z,1009.69
2017-08-15T15:33:45.431Z,1009.71
2017-08-15T15:35:46.865Z,1009.69
2017-08-15T15:37:48.317Z,1009.72
2017-08-15T15:39:49.756Z,1009.72
2017-08-15T15:41:51.273Z,1009.55
2017-08-15T15:43:52.712Z,1009.35
2017-08-15T15:45:54.151Z,1009.11
2017-08-15T15:47:56.350Z,1009.06
2017-08-15T15:50:37.825Z,1009.21
2017-08-15T15:52:39.269Z,1009.21
2017-08-15T15:54:40.713Z,1009.34
2017-08-15T15:56:42.149Z,1009.39
2017-08-15T15:58:43.585Z,1009.36
2017-08-15T16:00:45.093Z,1009.30
2017-08-15T16:02:46.562Z,1009.25
2017-08-15T16:04:47.976Z,1009.31
2017-08-15T16:06:49.442Z,1009.30
2017-08-15T16:08:50.878Z,1009.25
2017-08-15T16:10:52.320Z,1009.16
2017-08-15T16:12:53.768Z,1009.12
2017-08-15T16:14:55.207Z,1009.19
2017-08-15T16:16:56.643Z,1009.23
2017-08-15T16:18:58.149Z,1009.26
2017-08-15T16:20:59.665Z,1009.33
2017-08-15T16:23:01.231Z,1009.38
2017-08-15T16:25:02.763Z,1009.41
2017-08-15T16:27:04.736Z,1009.44
2017-08-15T16:29:06.415Z,1009.43
2017-08-15T16:31:07.963Z,1009.40
2017-08-15T16:33:09.514Z,1009.44
2017-08-15T16:35:11.053Z,1009.39
2017-08-15T16:37:12.535Z,1009.47
2017-08-15T16:39:14.036Z,1009.45
2017-08-15T16:41:15.657Z,1009.53
2017-08-15T16:43:17.206Z,1009.59
2017-08-15T16:45:18.867Z,1009.59
2017-08-15T16:47:22.974Z,1009.58
2017-08-15T16:49:24.510Z,1009.46
2017-08-15T16:51:26.129Z,1009.56
2017-08-15T16:53:27.651Z,1009.68
2017-08-15T16:55:29.365Z,1009.87
2017-08-15T16:57:31.020Z,1009.90
2017-08-15T16:59:32.580Z,1009.95
2017-08-15T17:01:34.105Z,1009.94
2017-08-15T17:03:35.703Z,1009.97
2017-08-15T17:05:37.351Z,1009.98
2017-08-15T17:07:38.917Z,1009.99
2017-08-15T17:09:40.432Z,1010.01
2017-08-15T17:11:41.938Z,1010.07
2017-08-15T17:13:43.473Z,1010.09
2017-08-15T17:15:45.058Z,1010.12
2017-08-15T17:17:46.575Z,1010.20
2017-08-15T17:19:48.218Z,1010.31
2017-08-15T17:21:49.769Z,1010.53
2017-08-15T17:23:51.357Z,1010.49
2017-08-15T17:25:52.864Z,1010.47
2017-08-15T17:27:54.443Z,1010.45
2017-08-15T17:29:55.980Z,1010.36
2017-08-15T17:31:57.552Z,1010.31
2017-08-15T17:33:59.174Z,1010.32
2017-08-15T17:36:00.759Z,1010.29
2017-08-15T17:38:02.275Z,1010.28
2017-08-15T17:40:03.893Z,1010.20
2017-08-15T17:42:05.435Z,1010.17
2017-08-15T17:44:06.959Z,1010.15
2017-08-15T17:46:08.510Z,1010.21
2017-08-15T17:48:10.000Z,1010.22
2017-08-15T17:50:11.561Z,1010.28
2017-08-15T17:52:13.066Z,1010.34
2017-08-15T17:54:14.527Z,1010.38
2017-08-15T17:56:16.044Z,1010.39
2017-08-15T17:58:17.557Z,1010.36
2017-08-15T18:00:19.057Z,1010.37
2017-08-15T18:02:20.514Z,1010.40
2017-08-15T18:04:22.051Z,1010.47
2017-08-15T18:06:23.582Z,1010.45
2017-08-15T18:08:25.102Z,1010.47
2017-08-15T18:10:26.560Z,1010.41
2017-08-15T18:12:28.167Z,1010.47
2017-08-15T18:14:29.720Z,1010.44
2017-08-15T18:16:31.205Z,1010.43
2017-08-15T18:18:32.747Z,1010.42
2017-08-15T18:20:34.288Z,1010.36
2017-08-15T18:22:35.890Z,1010.36
2017-08-15T18:24:37.396Z,1010.38
2017-08-15T18:26:38.923Z,1010.33
2017-08-15T18:28:40.572Z,1010.27
2017-08-15T18:30:42.056Z,1010.24
2017-08-15T18:32:43.613Z,1010.29
2017-08-15T18:34:45.258Z,1010.39
2017-08-15T18:36:46.853Z,1010.47
2017-08-15T18:38:48.417Z,1010.59
2017-08-15T18:40:50.103Z,1010.56
2017-08-15T18:42:52.086Z,1010.65
2017-08-15T18:44:54.042Z,1010.74
2017-08-15T18:46:55.551Z,1010.92
2017-08-15T18:48:57.025Z,1010.94
2017-08-15T18:50:58.528Z,1010.81
2017-08-15T18:53:00.057Z,1010.75
2017-08-15T18:55:01.575Z,1010.82
2017-08-15T18:57:03.152Z,1010.95
2017-08-15T18:59:04.705Z,1011.07
2017-08-15T19:01:06.262Z,1010.98
2017-08-15T19:03:07.779Z,1011.00
2017-08-15T19:05:09.350Z,1010.94
2017-08-15T19:07:10.823Z,1010.91
2017-08-15T19:09:12.369Z,1010.92
2017-08-15T19:11:13.930Z,1010.88
2017-08-15T19:13:15.506Z,1010.94
2017-08-15T19:15:17.058Z,1011.00
2017-08-15T19:17:18.566Z,1011.03
2017-08-15T19:19:20.125Z,1011.10
2017-08-15T19:21:21.778Z,1011.26
2017-08-15T19:23:23.227Z,1011.15
2017-08-15T19:25:24.731Z,1011.30
2017-08-15T19:27:26.320Z,1011.32
2017-08-15T19:29:27.867Z,1011.36
2017-08-15T19:31:29.456Z,1011.41
2017-08-15T19:33:31.272Z,1011.43
2017-08-15T19:35:33.322Z,1011.44
2017-08-15T19:37:34.806Z,1011.49
2017-08-15T19:39:36.603Z,1011.56
2017-08-15T19:41:38.110Z,1011.50
2017-08-15T19:43:39.626Z,1011.47
2017-08-15T19:45:41.182Z,1011.47
2017-08-15T19:47:42.720Z,1011.50
2017-08-15T19:49:44.336Z,1011.51
2017-08-15T19:51:45.826Z,1011.55
2017-08-15T19:53:47.345Z,1011.56
2017-08-15T19:55:48.970Z,1011.63
2017-08-15T19:57:50.546Z,1011.62
2017-08-15T19:59:52.045Z,1011.72
2017-08-15T20:01:53.684Z,1011.84
2017-08-15T20:03:55.258Z,1011.87
2017-08-15T20:05:56.954Z,1011.86
2017-08-15T20:07:58.699Z,1011.88
2017-08-15T20:10:00.215Z,1011.87
2017-08-15T20:12:01.730Z,1011.87
2017-08-15T20:14:03.212Z,1011.88
2017-08-15T20:16:05.089Z,1011.85
2017-08-15T20:18:06.605Z,1011.85
2017-08-15T20:20:08.304Z,1011.80
2017-08-15T20:22:09.898Z,1011.72
2017-08-15T20:24:11.427Z,1011.68
2017-08-15T20:26:12.921Z,1011.73
2017-08-15T20:28:14.445Z,1011.78
2017-08-15T20:30:15.978Z,1011.80
2017-08-15T20:32:17.532Z,1011.77
2017-08-15T20:34:19.083Z,1011.76
2017-08-15T20:36:20.586Z,1011.81
2017-08-15T20:39:03.235Z,1011.94
2017-08-15T20:41:05.355Z,1011.96
2017-08-15T20:43:06.888Z,1011.96
2017-08-15T20:45:08.565Z,1011.92
2017-08-15T20:47:10.029Z,1011.97
2017-08-15T20:49:11.466Z,1012.00
2017-08-15T20:51:12.909Z,1012.05
2017-08-15T20:53:14.356Z,1012.05
2017-08-15T20:55:15.797Z,1012.10
2017-08-15T20:57:17.252Z,1012.15
2017-08-15T20:59:18.688Z,1012.19
2017-08-15T21:01:20.114Z,1012.19
2017-08-15T21:03:21.544Z,1012.17
2017-08-15T21:05:23.020Z,1012.14
2017-08-15T21:07:24.582Z,1012.16
2017-08-15T21:09:26.077Z,1012.22
2017-08-15T21:11:27.537Z,1012.23
2017-08-15T21:13:29.059Z,1012.28
2017-08-15T21:15:30.621Z,1012.25
2017-08-15T21:17:32.144Z,1012.31
2017-08-15T21:19:33.831Z,1012.29
2017-08-15T21:21:35.606Z,1012.36
2017-08-15T21:23:37.348Z,1012.41
2017-08-15T21:25:38.862Z,1012.43
2017-08-15T21:27:40.373Z,1012.47
2017-08-15T21:29:41.988Z,1012.48
2017-08-15T21:31:43.572Z,1012.47
2017-08-15T21:33:45.069Z,1012.50
2017-08-15T21:35:46.617Z,1012.55
2017-08-15T21:37:48.154Z,1012.58
2017-08-15T21:40:30.609Z,1012.57
2017-08-15T21:42:32.029Z,1012.57
2017-08-15T21:44:33.508Z,1012.61
2017-08-15T21:46:34.939Z,1012.60
2017-08-15T21:48:36.372Z,1012.74
2017-08-15T21:50:37.808Z,1012.75
2017-08-15T21:52:39.234Z,1012.71
2017-08-15T21:55:21.709Z,1012.72
2017-08-15T21:57:23.140Z,1012.79
2017-08-15T21:59:24.582Z,1012.76
2017-08-15T22:01:25.996Z,1012.80
2017-08-15T22:03:27.429Z,1012.89
2017-08-15T22:05:29.484Z,1012.91
2017-08-15T22:07:30.912Z,1012.92
2017-08-15T22:09:32.341Z,1012.94
2017-08-15T22:11:33.797Z,1013.01
2017-08-15T22:13:35.525Z,1013.03
2017-08-15T22:15:37.051Z,1013.08
2017-08-15T22:17:38.735Z,1013.04
2017-08-15T22:19:40.339Z,1012.99
2017-08-15T22:21:42.054Z,1012.95
2017-08-15T22:23:43.885Z,1013.05
2017-08-15T22:25:45.339Z,1013.14
2017-08-15T22:27:46.771Z,1013.18
2017-08-15T22:29:48.337Z,1013.16
2017-08-15T22:32:29.431Z,1013.18
2017-08-15T22:34:31.108Z,1013.20
2017-08-15T22:36:32.538Z,1013.21
2017-08-15T22:38:34.063Z,1013.24
2017-08-15T22:40:35.504Z,1013.27
2017-08-15T22:42:37.182Z,1013.26
2017-08-15T22:44:38.923Z,1013.26
2017-08-15T22:46:40.552Z,1013.25
2017-08-15T22:48:42.916Z,1013.34
2017-08-15T22:50:45.375Z,1013.38
2017-08-15T22:52:47.136Z,1013.43
2017-08-15T22:54:49.386Z,1013.39
2017-08-15T22:56:51.256Z,1013.43
2017-08-15T22:59:35.002Z,1013.40
2017-08-15T23:01:37.815Z,1013.46
2017-08-15T23:03:40.395Z,1013.52
2017-08-15T23:05:42.240Z,1013.52
2017-08-15T23:07:44.551Z,1013.53
2017-08-15T23:09:46.292Z,1013.58
2017-08-15T23:11:47.842Z,1013.59
2017-08-15T23:13:49.264Z,1013.63
2017-08-15T23:16:31.722Z,1013.55
2017-08-15T23:18:33.204Z,1013.54
2017-08-15T23:20:34.904Z,1013.58
2017-08-15T23:22:36.345Z,1013.52
2017-08-15T23:24:37.962Z,1013.55
2017-08-15T23:26:39.509Z,1013.59
2017-08-15T23:28:41.045Z,1013.69
2017-08-15T23:30:43.564Z,1013.74
2017-08-15T23:32:45.207Z,1013.75
2017-08-15T23:35:27.695Z,1013.75
2017-08-15T23:37:29.718Z,1013.76
2017-08-15T23:39:31.137Z,1013.85
2017-08-15T23:41:33.414Z,1013.88
2017-08-15T23:43:34.877Z,1013.83
2017-08-15T23:45:36.411Z,1013.91
2017-08-15T23:47:38.902Z,1013.93
2017-08-15T23:49:40.639Z,1013.90
2017-08-15T23:51:42.190Z,1013.93
2017-08-15T23:53:44.532Z,1013.96
2017-08-15T23:56:29.078Z,1013.81
2017-08-15T23:58:30.994Z,1013.73
